Chugiak, AK

11:39 PM AKST on March 03, 2015 (GMT -0900)
Elmendorf Air Force Base | Change Station
CLOSE
Current Station
Airport
Location: Elmendorf AFB,
Elevation: 213 ft
Nearby Weather Stations

Elev 213 ft 61.25 °N, 149.81 °W | Updated 41 minutes ago

Overcast
Overcast
34 °F
Feels Like 34 °F
N
0
Wind Variable Wind from North

Today
High -- | Low -- °F
--% Chance of Precip.
Yesterday
High -- | Low -- °F
Precip. -- in
7:52 AM 6:27 PM
Waxing Gibbous, 98% visible
Pressure 29.99 in
Visibility 10.0 miles
Clouds Scattered Clouds 500 ft
Mostly Cloudy 3700 ft
Mostly Cloudy 4800 ft
Overcast 6000 ft
Dew Point 33 °F
Humidity 99%
Rainfall 0.00 in
Snow Depth Not available.
UV 0 out of 12
Pollen Not available.
Air Quality Not available.
Flu Activity Not available.
METAR PAED 040758Z AUTO 00000KT 10SM SCT005 BKN037 BKN048 OVC060 01/01 A2999 RMK AO2 SLP153 T00090008

More Conditions Fewer Conditions

Pressure 29.99 in
Visibility 10.0 miles
Clouds Scattered Clouds 500 ft
Mostly Cloudy 3700 ft
Mostly Cloudy 4800 ft
Overcast 6000 ft
Dew Point 33 °F
Humidity 99%
Rainfall 0.00 in
Snow Depth Not available.
UV 0 out of 12
Pollen Not available.
Air Quality Not available.
Flu Activity Not available.
METAR PAED 040758Z AUTO 00000KT 10SM SCT005 BKN037 BKN048 OVC060 01/01 A2999 RMK AO2 SLP153 T00090008

More Conditions Fewer Conditions

10-Day Weather Forecast

Almanac

Astronomy

Mar. 03, 2015 Rise Set
Actual Time
Civil Twilight
Nautical Twilight
Astronomical Twilight
Moon
Length of Visible Light
Length of Day
Tomorrow will be .
, % of the Moon is Illuminated

Today's Extremes

State Highs State Lows

Community

WunderPhotos

Upload Photos

1,802,416 photos uploaded!

WunderBlogs® & News

Nearby

Air Quality

  Air Quality AQ Index Pollutant
Not available.

Snow Depth

Station Depth Elevation

Earthquake Activity

City Distance Mag. Time & Date
Minimum magnitude displayed is 2.5.

Coastal Water Temperatures

Place Temperature

Nearby Weather Stations